CMA CGM Swordfish — 2ABB2 — position and weather

sailwx.info

Track history (hours):
 
Tides and Currents Weather Stations Pressure Air Temp Water Temp Dewpoint Dewpoint Depression Visibility Wind Speed Wind Dir Waves Ship Positions

CMA CGM Swordfish

Last reported at 2017-Oct-07 03:05 UTC. Time now 2017-Oct-17 05:39 UTC.
Position N 30°44' W 128°56'.
Warning: this ship's position is 10 days out of date.

Length 294 m; draft 9.4 m.

Type: Cargo ship. MMSI: 235058391.

Date/timePositionNaut miles runAvg speedWind from/ knotsBaromVisibWave heightAir tempDewpointWater temp
2017-Oct-07 03:05N 30°44' W 128°56'6216.5
2017-Oct-06 23:21N 30°41' W 127°44'616.4
2017-Oct-06 23:00N 30°41' W 127°38'1016.3
2017-Oct-06 22:25N 30°41' W 127°27'716.5
2017-Oct-06 22:00N 30°40' W 127°19'1216.5
2017-Oct-06 21:17N 30°40' W 127°05'416.3
2017-Oct-06 21:00N 30°39' W 126°60'4716.5
2017-Oct-06 18:09N 30°37' W 126°05'2417.8
2017-Oct-06 16:49N 30°36' W 125°38'721.7
2017-Oct-06 16:30N 30°36' W 125°30'1021.1
2017-Oct-06 16:01N 30°35' W 125°18'1019.2
2017-Oct-06 15:30N 30°35' W 125°06'815.4
2017-Oct-06 15:00N 30°34' W 124°58'713.7
2017-Oct-06 14:30N 30°34' W 124°50'713.6
2017-Oct-06 14:00N 30°34' W 124°42'713.6
2017-Oct-06 13:28N 30°34' W 124°33'613.4
2017-Oct-06 13:01N 30°33' W 124°26'713.2
2017-Oct-06 12:30N 30°33' W 124°18'713.4
2017-Oct-06 12:00N 30°33' W 124°11'713.4
2017-Oct-06 11:31N 30°32' W 124°03'713.5
2017-Oct-06 11:00N 30°32' W 123°55'713.4
2017-Oct-06 10:31N 30°32' W 123°47'713.4
2017-Oct-06 10:00N 30°31' W 123°40'713.3
2017-Oct-06 09:30N 30°31' W 123°32'713.7
2017-Oct-06 09:01N 30°31' W 123°24'713.9
2017-Oct-06 08:31N 30°30' W 123°16'713.5
2017-Oct-06 08:00N 30°30' W 123°08'713.4
2017-Oct-06 07:30N 30°30' W 123°00'713.4
2017-Oct-06 06:58N 30°29' W 122°52'613.4
2017-Oct-06 06:30N 30°29' W 122°45'813.6
2017-Oct-06 05:55N 30°29' W 122°35'613.5
2017-Oct-06 05:30N 30°28' W 122°29'713.4
2017-Oct-06 05:00N 30°28' W 122°21'713.3
2017-Oct-06 04:31N 30°28' W 122°13'713.3
2017-Oct-06 04:00N 30°28' W 122°06'713.3
2017-Oct-06 03:31N 30°28' W 121°58'713.1
2017-Oct-06 03:00N 30°28' W 121°50'713.2
2017-Oct-06 02:31N 30°29' W 121°43'713.3
2017-Oct-06 02:00N 30°30' W 121°35'813.5
2017-Oct-06 01:24N 30°32' W 121°26'513.6
2017-Oct-06 01:00N 30°33' W 121°20'713.4
2017-Oct-06 00:30N 30°35' W 121°12'613.2
2017-Oct-06 00:01N 30°36' W 121°05'713.1
2017-Oct-05 23:30N 30°37' W 120°57'713.0
2017-Oct-05 23:00N 30°39' W 120°50'713.0
2017-Oct-05 22:30N 30°40' W 120°43'612.9
2017-Oct-05 22:00N 30°41' W 120°35'612.6
2017-Oct-05 21:31N 30°43' W 120°28'612.5
2017-Oct-05 21:01N 30°44' W 120°21'612.3
2017-Oct-05 20:30N 30°45' W 120°14'612.6
2017-Oct-05 20:01N 30°47' W 120°07'612.7
2017-Oct-05 19:30N 30°48' W 119°60'612.6
2017-Oct-05 19:01N 30°49' W 119°53'612.8
2017-Oct-05 18:30N 30°50' W 119°45'612.8
2017-Oct-05 18:01N 30°52' W 119°38'712.9
2017-Oct-05 17:30N 30°53' W 119°30'613.0
2017-Oct-05 17:00N 30°54' W 119°23'2013.2
2017-Oct-05 15:30N 30°59' W 119°01'713.4
2017-Oct-05 15:01N 31°02' W 118°53'713.3
2017-Oct-05 14:31N 31°04' W 118°46'713.5
2017-Oct-05 14:00N 31°06' W 118°38'713.2
2017-Oct-05 13:31N 31°09' W 118°32'713.4
2017-Oct-05 13:00N 31°14' W 118°27'713.1
2017-Oct-05 12:30N 31°20' W 118°25'713.1
2017-Oct-05 12:00N 31°27' W 118°22'613.0
2017-Oct-05 11:31N 31°33' W 118°19'713.3
2017-Oct-05 11:01N 31°39' W 118°16'612.9
2017-Oct-05 10:30N 31°45' W 118°14'612.8
2017-Oct-05 10:01N 31°51' W 118°11'713.6
2017-Oct-05 09:31N 31°57' W 118°08'713.7
2017-Oct-05 09:01N 32°04' W 118°05'713.9
2017-Oct-05 08:30N 32°10' W 118°02'713.7
2017-Oct-05 08:00N 32°16' W 117°59'713.6
2017-Oct-05 07:31N 32°23' W 117°56'713.6
2017-Oct-05 07:00N 32°29' W 117°53'713.6
2017-Oct-05 06:30N 32°35' W 117°50'612.8
2017-Oct-05 06:00N 32°42' W 117°51'713.5
2017-Oct-05 05:30N 32°48' W 117°54'713.6
2017-Oct-05 05:00N 32°55' W 117°56'713.5
2017-Oct-05 04:30N 33°01' W 117°59'713.7
2017-Oct-05 04:00N 33°07' W 118°01'713.5
2017-Oct-05 03:31N 33°14' W 118°04'714.0
2017-Oct-05 03:01N 33°20' W 118°07'714.0
2017-Oct-05 02:31N 33°27' W 118°10'713.5
2017-Oct-05 02:00N 33°33' W 118°12'611.6
2017-Oct-05 01:30N 33°39' W 118°14'4 8.2
2017-Oct-05 01:00N 33°43' W 118°16'1 2.4
2017-Oct-05 00:30N 33°44' W 118°15'0 0.0
2017-Oct-05 00:00N 33°44' W 118°15'0 0.0
2017-Oct-04 23:30N 33°44' W 118°15'0 0.0
2017-Oct-04 23:00N 33°44' W 118°15'0 0.0
2017-Oct-04 22:30N 33°44' W 118°15'0 0.0
2017-Oct-04 22:00N 33°44' W 118°15'0 0.0
2017-Oct-04 21:30N 33°44' W 118°15'0 0.0
2017-Oct-04 21:00N 33°44' W 118°15'0 0.0
2017-Oct-04 20:27N 33°44' W 118°15'0 0.0
2017-Oct-04 20:00N 33°44' W 118°15'0 0.0
2017-Oct-04 19:30N 33°44' W 118°15'0 0.0
2017-Oct-04 19:00N 33°44' W 118°15'0 0.0
2017-Oct-04 18:30N 33°44' W 118°15'0 0.0
2017-Oct-04 18:00N 33°44' W 118°15'0 0.0
2017-Oct-04 17:27N 33°44' W 118°15'0 0.0
2017-Oct-04 17:00N 33°44' W 118°15'0 0.0
2017-Oct-04 16:27N 33°44' W 118°15'0 0.0
2017-Oct-04 15:54N 33°44' W 118°15'0 0.0
2017-Oct-04 15:27N 33°44' W 118°15'0 0.0
2017-Oct-04 14:51N 33°44' W 118°15'0 0.0
2017-Oct-04 14:15N 33°44' W 118°15'0 0.0
2017-Oct-04 13:45N 33°44' W 118°15'0 0.0
2017-Oct-04 13:21N 33°44' W 118°15'0 0.0
2017-Oct-04 12:57N 33°44' W 118°15'0 0.0
2017-Oct-04 12:18N 33°44' W 118°15'0 0.0
2017-Oct-04 11:45N 33°44' W 118°15'0 0.0
2017-Oct-04 11:27N 33°44' W 118°15'0 0.0
2017-Oct-04 10:57N 33°44' W 118°15'0 0.0
2017-Oct-04 10:15N 33°44' W 118°15'0 0.0
2017-Oct-04 09:51N 33°44' W 118°15'0 0.0
2017-Oct-04 09:21N 33°44' W 118°15'0 0.0
2017-Oct-04 08:51N 33°44' W 118°15'0 0.0
2017-Oct-04 08:29N 33°44' W 118°15'0 0.0
2017-Oct-04 07:56N 33°44' W 118°15'0 0.0
2017-Oct-04 07:29N 33°44' W 118°15'0 0.0
2017-Oct-04 06:49N 33°44' W 118°15'0 0.0
2017-Oct-04 06:25N 33°44' W 118°15'0 0.0
2017-Oct-04 05:52N 33°44' W 118°15'0 0.0
2017-Oct-04 05:19N 33°44' W 118°15'0 0.0
2017-Oct-04 04:55N 33°44' W 118°15'0 0.0
2017-Oct-04 04:25N 33°44' W 118°15'0 0.0
2017-Oct-04 03:55N 33°44' W 118°15'0 0.0
2017-Oct-04 03:13N 33°44' W 118°15'0 0.0
2017-Oct-04 02:43N 33°44' W 118°15'0 0.0
2017-Oct-04 02:25N 33°44' W 118°15'0 0.0
2017-Oct-04 01:49N 33°44' W 118°15'0 0.0
2017-Oct-04 01:25N 33°44' W 118°15'0 0.0
2017-Oct-04 00:55N 33°44' W 118°15'0 0.0
2017-Oct-04 00:07N 33°44' W 118°15'0 0.0
2017-Oct-03 23:55N 33°44' W 118°15'0 0.0
2017-Oct-03 23:25N 33°44' W 118°15'0 0.0
2017-Oct-03 22:13N 33°44' W 118°15'0 0.0
2017-Oct-03 21:55N 33°44' W 118°15'0 0.0
2017-Oct-03 21:25N 33°44' W 118°15'0 0.0
2017-Oct-03 20:55N 33°44' W 118°15'0 0.0
2017-Oct-03 20:25N 33°44' W 118°15'0 0.0
2017-Oct-03 19:55N 33°44' W 118°15'0 0.0
2017-Oct-03 19:13N 33°44' W 118°15'0 0.0
2017-Oct-03 18:55N 33°44' W 118°15'0 0.0
2017-Oct-03 18:13N 33°44' W 118°15'0 0.0
2017-Oct-03 17:49N 33°44' W 118°15'0 0.0
2017-Oct-03 17:25N 33°44' W 118°15'0 0.0
2017-Oct-03 16:49N 33°44' W 118°15'0 0.0
2017-Oct-03 16:25N 33°44' W 118°15'0 0.0
2017-Oct-03 15:55N 33°44' W 118°15'0 0.0
2017-Oct-03 15:25N 33°44' W 118°15'0 0.0
2017-Oct-03 14:55N 33°44' W 118°15'0 0.0
2017-Oct-03 13:37N 33°44' W 118°15'0 0.0
2017-Oct-03 13:04N 33°44' W 118°15'0 0.1
2017-Oct-03 12:58N 33°44' W 118°15'0 0.0
2017-Oct-03 11:55N 33°44' W 118°15'0 1.0
2017-Oct-03 11:30N 33°44' W 118°15'3 6.2
2017-Oct-03 11:00N 33°41' W 118°14'4 7.9
2017-Oct-03 10:30N 33°37' W 118°12'5 9.3
2017-Oct-03 10:00N 33°33' W 118°09'510.9
2017-Oct-03 09:30N 33°28' W 118°07'611.1
2017-Oct-03 09:00N 33°23' W 118°04'611.7
2017-Oct-03 08:30N 33°18' W 118°01'713.8
2017-Oct-03 08:01N 33°13' W 117°56'713.6
2017-Oct-03 07:30N 33°06' W 117°53'713.6
2017-Oct-03 07:01N 33°00' W 117°50'713.3
2017-Oct-03 06:30N 32°54' W 117°46'713.4
2017-Oct-03 06:01N 32°48' W 117°43'713.7
2017-Oct-03 05:30N 32°42' W 117°39'713.5
2017-Oct-03 05:00N 32°36' W 117°35'713.6
2017-Oct-03 04:30N 32°30' W 117°33'713.5
2017-Oct-03 04:00N 32°23' W 117°30'713.3
2017-Oct-03 03:31N 32°17' W 117°28'713.2
2017-Oct-03 03:00N 32°11' W 117°26'10710.2
2017-Oct-02 16:28N 30°29' W 116°45'2 0.5
2017-Oct-02 12:43N 30°30' W 116°46'12 0.9
2017-Oct-01 23:48N 30°40' W 116°55'5 1.3
2017-Oct-01 19:54N 30°43' W 116°59'2 1.3
2017-Oct-01 18:41N 30°44' W 117°00'0 1.2
2017-Oct-01 18:26N 30°44' W 117°01'17 5.1
2017-Oct-01 15:10N 30°31' W 116°49'1913.1
2017-Oct-01 13:42N 30°13' W 116°42'512.9
2017-Oct-01 13:17N 30°08' W 116°40'1213.0
2017-Oct-01 12:19N 29°56' W 116°36'413.0
2017-Oct-01 11:59N 29°51' W 116°34'612.9
2017-Oct-01 11:30N 29°46' W 116°33'612.9
2017-Oct-01 11:01N 29°39' W 116°31'812.7
2017-Oct-01 10:25N 29°32' W 116°29'612.4
2017-Oct-01 09:57N 29°27' W 116°26'612.1
2017-Oct-01 09:28N 29°22' W 116°23'612.0
2017-Oct-01 09:00N 29°16' W 116°21'612.2
2017-Oct-01 08:30N 29°10' W 116°19'812.2
2017-Oct-01 07:52N 29°03' W 116°16'1512.2
2017-Oct-01 06:36N 28°48' W 116°11'112.4
2017-Oct-01 06:30N 28°47' W 116°10'612.2
2017-Oct-01 06:00N 28°41' W 116°08'1712.4
2017-Oct-01 04:39N 28°25' W 116°03'211.9
2017-Oct-01 04:31N 28°24' W 116°02'712.2
2017-Oct-01 03:58N 28°18' W 115°59'612.5
2017-Oct-01 03:29N 28°12' W 115°56'1212.3
2017-Oct-01 02:32N 28°02' W 115°49'  
Track history (hours):
 
Tides and Currents Weather Stations Pressure Air Temp Water Temp Dewpoint Dewpoint Depression Visibility Wind Speed Wind Dir Waves Ship Positions

CMA CGM Swordfish

Last reported at 2017-Oct-07 03:05 UTC. Time now 2017-Oct-17 05:39 UTC.
Position N 30°44' W 128°56'.
Warning: this ship's position is 10 days out of date.

Length 294 m; draft 9.4 m.

Type: Cargo ship. MMSI: 235058391.

Date/timePositionNaut miles runAvg speedWind from/ knotsBaromVisibWave heightAir tempDewpointWater temp
2017-Oct-07 03:05N 30°44' W 128°56'6216.5
2017-Oct-06 23:21N 30°41' W 127°44'616.4
2017-Oct-06 23:00N 30°41' W 127°38'1016.3
2017-Oct-06 22:25N 30°41' W 127°27'716.5
2017-Oct-06 22:00N 30°40' W 127°19'1216.5
2017-Oct-06 21:17N 30°40' W 127°05'416.3
2017-Oct-06 21:00N 30°39' W 126°60'4716.5
2017-Oct-06 18:09N 30°37' W 126°05'2417.8
2017-Oct-06 16:49N 30°36' W 125°38'721.7
2017-Oct-06 16:30N 30°36' W 125°30'1021.1
2017-Oct-06 16:01N 30°35' W 125°18'1019.2
2017-Oct-06 15:30N 30°35' W 125°06'815.4
2017-Oct-06 15:00N 30°34' W 124°58'713.7
2017-Oct-06 14:30N 30°34' W 124°50'713.6
2017-Oct-06 14:00N 30°34' W 124°42'713.6
2017-Oct-06 13:28N 30°34' W 124°33'613.4
2017-Oct-06 13:01N 30°33' W 124°26'713.2
2017-Oct-06 12:30N 30°33' W 124°18'713.4
2017-Oct-06 12:00N 30°33' W 124°11'713.4
2017-Oct-06 11:31N 30°32' W 124°03'713.5
2017-Oct-06 11:00N 30°32' W 123°55'713.4
2017-Oct-06 10:31N 30°32' W 123°47'713.4
2017-Oct-06 10:00N 30°31' W 123°40'713.3
2017-Oct-06 09:30N 30°31' W 123°32'713.7
2017-Oct-06 09:01N 30°31' W 123°24'713.9
2017-Oct-06 08:31N 30°30' W 123°16'713.5
2017-Oct-06 08:00N 30°30' W 123°08'713.4
2017-Oct-06 07:30N 30°30' W 123°00'713.4
2017-Oct-06 06:58N 30°29' W 122°52'613.4
2017-Oct-06 06:30N 30°29' W 122°45'813.6
2017-Oct-06 05:55N 30°29' W 122°35'613.5
2017-Oct-06 05:30N 30°28' W 122°29'713.4
2017-Oct-06 05:00N 30°28' W 122°21'713.3
2017-Oct-06 04:31N 30°28' W 122°13'713.3
2017-Oct-06 04:00N 30°28' W 122°06'713.3
2017-Oct-06 03:31N 30°28' W 121°58'713.1
2017-Oct-06 03:00N 30°28' W 121°50'713.2
2017-Oct-06 02:31N 30°29' W 121°43'713.3
2017-Oct-06 02:00N 30°30' W 121°35'813.5
2017-Oct-06 01:24N 30°32' W 121°26'513.6
2017-Oct-06 01:00N 30°33' W 121°20'713.4
2017-Oct-06 00:30N 30°35' W 121°12'613.2
2017-Oct-06 00:01N 30°36' W 121°05'713.1
2017-Oct-05 23:30N 30°37' W 120°57'713.0
2017-Oct-05 23:00N 30°39' W 120°50'713.0
2017-Oct-05 22:30N 30°40' W 120°43'612.9
2017-Oct-05 22:00N 30°41' W 120°35'612.6
2017-Oct-05 21:31N 30°43' W 120°28'612.5
2017-Oct-05 21:01N 30°44' W 120°21'612.3
2017-Oct-05 20:30N 30°45' W 120°14'612.6
2017-Oct-05 20:01N 30°47' W 120°07'612.7
2017-Oct-05 19:30N 30°48' W 119°60'612.6
2017-Oct-05 19:01N 30°49' W 119°53'612.8
2017-Oct-05 18:30N 30°50' W 119°45'612.8
2017-Oct-05 18:01N 30°52' W 119°38'712.9
2017-Oct-05 17:30N 30°53' W 119°30'613.0
2017-Oct-05 17:00N 30°54' W 119°23'2013.2
2017-Oct-05 15:30N 30°59' W 119°01'713.4
2017-Oct-05 15:01N 31°02' W 118°53'713.3
2017-Oct-05 14:31N 31°04' W 118°46'713.5
2017-Oct-05 14:00N 31°06' W 118°38'713.2
2017-Oct-05 13:31N 31°09' W 118°32'713.4
2017-Oct-05 13:00N 31°14' W 118°27'713.1
2017-Oct-05 12:30N 31°20' W 118°25'713.1
2017-Oct-05 12:00N 31°27' W 118°22'613.0
2017-Oct-05 11:31N 31°33' W 118°19'713.3
2017-Oct-05 11:01N 31°39' W 118°16'612.9
2017-Oct-05 10:30N 31°45' W 118°14'612.8
2017-Oct-05 10:01N 31°51' W 118°11'713.6
2017-Oct-05 09:31N 31°57' W 118°08'713.7
2017-Oct-05 09:01N 32°04' W 118°05'713.9
2017-Oct-05 08:30N 32°10' W 118°02'713.7
2017-Oct-05 08:00N 32°16' W 117°59'713.6
2017-Oct-05 07:31N 32°23' W 117°56'713.6
2017-Oct-05 07:00N 32°29' W 117°53'713.6
2017-Oct-05 06:30N 32°35' W 117°50'612.8
2017-Oct-05 06:00N 32°42' W 117°51'713.5
2017-Oct-05 05:30N 32°48' W 117°54'713.6
2017-Oct-05 05:00N 32°55' W 117°56'713.5
2017-Oct-05 04:30N 33°01' W 117°59'713.7
2017-Oct-05 04:00N 33°07' W 118°01'713.5
2017-Oct-05 03:31N 33°14' W 118°04'714.0
2017-Oct-05 03:01N 33°20' W 118°07'714.0
2017-Oct-05 02:31N 33°27' W 118°10'713.5
2017-Oct-05 02:00N 33°33' W 118°12'611.6
2017-Oct-05 01:30N 33°39' W 118°14'4 8.2
2017-Oct-05 01:00N 33°43' W 118°16'1 2.4
2017-Oct-05 00:30N 33°44' W 118°15'0 0.0
2017-Oct-05 00:00N 33°44' W 118°15'0 0.0
2017-Oct-04 23:30N 33°44' W 118°15'0 0.0
2017-Oct-04 23:00N 33°44' W 118°15'0 0.0
2017-Oct-04 22:30N 33°44' W 118°15'0 0.0
2017-Oct-04 22:00N 33°44' W 118°15'0 0.0
2017-Oct-04 21:30N 33°44' W 118°15'0 0.0
2017-Oct-04 21:00N 33°44' W 118°15'0 0.0
2017-Oct-04 20:27N 33°44' W 118°15'0 0.0
2017-Oct-04 20:00N 33°44' W 118°15'0 0.0
2017-Oct-04 19:30N 33°44' W 118°15'0 0.0
2017-Oct-04 19:00N 33°44' W 118°15'0 0.0
2017-Oct-04 18:30N 33°44' W 118°15'0 0.0
2017-Oct-04 18:00N 33°44' W 118°15'0 0.0
2017-Oct-04 17:27N 33°44' W 118°15'0 0.0
2017-Oct-04 17:00N 33°44' W 118°15'0 0.0
2017-Oct-04 16:27N 33°44' W 118°15'0 0.0
2017-Oct-04 15:54N 33°44' W 118°15'0 0.0
2017-Oct-04 15:27N 33°44' W 118°15'0 0.0
2017-Oct-04 14:51N 33°44' W 118°15'0 0.0
2017-Oct-04 14:15N 33°44' W 118°15'0 0.0
2017-Oct-04 13:45N 33°44' W 118°15'0 0.0
2017-Oct-04 13:21N 33°44' W 118°15'0 0.0
2017-Oct-04 12:57N 33°44' W 118°15'0 0.0
2017-Oct-04 12:18N 33°44' W 118°15'0 0.0
2017-Oct-04 11:45N 33°44' W 118°15'0 0.0
2017-Oct-04 11:27N 33°44' W 118°15'0 0.0
2017-Oct-04 10:57N 33°44' W 118°15'0 0.0
2017-Oct-04 10:15N 33°44' W 118°15'0 0.0
2017-Oct-04 09:51N 33°44' W 118°15'0 0.0
2017-Oct-04 09:21N 33°44' W 118°15'0 0.0
2017-Oct-04 08:51N 33°44' W 118°15'0 0.0
2017-Oct-04 08:29N 33°44' W 118°15'0 0.0
2017-Oct-04 07:56N 33°44' W 118°15'0 0.0
2017-Oct-04 07:29N 33°44' W 118°15'0 0.0
2017-Oct-04 06:49N 33°44' W 118°15'0 0.0
2017-Oct-04 06:25N 33°44' W 118°15'0 0.0
2017-Oct-04 05:52N 33°44' W 118°15'0 0.0
2017-Oct-04 05:19N 33°44' W 118°15'0 0.0
2017-Oct-04 04:55N 33°44' W 118°15'0 0.0
2017-Oct-04 04:25N 33°44' W 118°15'0 0.0
2017-Oct-04 03:55N 33°44' W 118°15'0 0.0
2017-Oct-04 03:13N 33°44' W 118°15'0 0.0
2017-Oct-04 02:43N 33°44' W 118°15'0 0.0
2017-Oct-04 02:25N 33°44' W 118°15'0 0.0
2017-Oct-04 01:49N 33°44' W 118°15'0 0.0
2017-Oct-04 01:25N 33°44' W 118°15'0 0.0
2017-Oct-04 00:55N 33°44' W 118°15'0 0.0
2017-Oct-04 00:07N 33°44' W 118°15'0 0.0
2017-Oct-03 23:55N 33°44' W 118°15'0 0.0
2017-Oct-03 23:25N 33°44' W 118°15'0 0.0
2017-Oct-03 22:13N 33°44' W 118°15'0 0.0
2017-Oct-03 21:55N 33°44' W 118°15'0 0.0
2017-Oct-03 21:25N 33°44' W 118°15'0 0.0
2017-Oct-03 20:55N 33°44' W 118°15'0 0.0
2017-Oct-03 20:25N 33°44' W 118°15'0 0.0
2017-Oct-03 19:55N 33°44' W 118°15'0 0.0
2017-Oct-03 19:13N 33°44' W 118°15'0 0.0
2017-Oct-03 18:55N 33°44' W 118°15'0 0.0
2017-Oct-03 18:13N 33°44' W 118°15'0 0.0
2017-Oct-03 17:49N 33°44' W 118°15'0 0.0
2017-Oct-03 17:25N 33°44' W 118°15'0 0.0
2017-Oct-03 16:49N 33°44' W 118°15'0 0.0
2017-Oct-03 16:25N 33°44' W 118°15'0 0.0
2017-Oct-03 15:55N 33°44' W 118°15'0 0.0
2017-Oct-03 15:25N 33°44' W 118°15'0 0.0
2017-Oct-03 14:55N 33°44' W 118°15'0 0.0
2017-Oct-03 13:37N 33°44' W 118°15'0 0.0
2017-Oct-03 13:04N 33°44' W 118°15'0 0.1
2017-Oct-03 12:58N 33°44' W 118°15'0 0.0
2017-Oct-03 11:55N 33°44' W 118°15'0 1.0
2017-Oct-03 11:30N 33°44' W 118°15'3 6.2
2017-Oct-03 11:00N 33°41' W 118°14'4 7.9
2017-Oct-03 10:30N 33°37' W 118°12'5 9.3
2017-Oct-03 10:00N 33°33' W 118°09'510.9
2017-Oct-03 09:30N 33°28' W 118°07'611.1
2017-Oct-03 09:00N 33°23' W 118°04'611.7
2017-Oct-03 08:30N 33°18' W 118°01'713.8
2017-Oct-03 08:01N 33°13' W 117°56'713.6
2017-Oct-03 07:30N 33°06' W 117°53'713.6
2017-Oct-03 07:01N 33°00' W 117°50'713.3
2017-Oct-03 06:30N 32°54' W 117°46'713.4
2017-Oct-03 06:01N 32°48' W 117°43'713.7
2017-Oct-03 05:30N 32°42' W 117°39'713.5
2017-Oct-03 05:00N 32°36' W 117°35'713.6
2017-Oct-03 04:30N 32°30' W 117°33'713.5
2017-Oct-03 04:00N 32°23' W 117°30'713.3
2017-Oct-03 03:31N 32°17' W 117°28'713.2
2017-Oct-03 03:00N 32°11' W 117°26'10710.2
2017-Oct-02 16:28N 30°29' W 116°45'2 0.5
2017-Oct-02 12:43N 30°30' W 116°46'12 0.9
2017-Oct-01 23:48N 30°40' W 116°55'5 1.3
2017-Oct-01 19:54N 30°43' W 116°59'2 1.3
2017-Oct-01 18:41N 30°44' W 117°00'0 1.2
2017-Oct-01 18:26N 30°44' W 117°01'17 5.1
2017-Oct-01 15:10N 30°31' W 116°49'1913.1
2017-Oct-01 13:42N 30°13' W 116°42'512.9
2017-Oct-01 13:17N 30°08' W 116°40'1213.0
2017-Oct-01 12:19N 29°56' W 116°36'413.0
2017-Oct-01 11:59N 29°51' W 116°34'612.9
2017-Oct-01 11:30N 29°46' W 116°33'612.9
2017-Oct-01 11:01N 29°39' W 116°31'812.7
2017-Oct-01 10:25N 29°32' W 116°29'612.4
2017-Oct-01 09:57N 29°27' W 116°26'612.1
2017-Oct-01 09:28N 29°22' W 116°23'612.0
2017-Oct-01 09:00N 29°16' W 116°21'612.2
2017-Oct-01 08:30N 29°10' W 116°19'812.2
2017-Oct-01 07:52N 29°03' W 116°16'1512.2
2017-Oct-01 06:36N 28°48' W 116°11'112.4
2017-Oct-01 06:30N 28°47' W 116°10'612.2
2017-Oct-01 06:00N 28°41' W 116°08'1712.4
2017-Oct-01 04:39N 28°25' W 116°03'211.9
2017-Oct-01 04:31N 28°24' W 116°02'712.2
2017-Oct-01 03:58N 28°18' W 115°59'612.5
2017-Oct-01 03:29N 28°12' W 115°56'1212.3
2017-Oct-01 02:32N 28°02' W 115°49'  

Dump ship's entire track history